KPAH - December 21, 2004 - Hourly Observations

Time(CST) Temperature Dew Point Humidity Sea Level Pressure Visibility Wind Direction Wind Speed Gust Speed Precipitation Events Conditions
12:53 AM 43.0 F / 6.1 C 27.0 F / -2.8 C 53% 29.83 in / 1010.0 hPa 10.0 miles / 16.1 kilometers SW 16.1 mph / 25.9 km/h / 7.2 m/s 23.0 mph / 37.0 km/h / 10.3 m/s N/A   Clear
METAR KPAH 210653Z AUTO 22014G20KT 10SM CLR 06/M03 A2982 RMK AO2 SLP100 T00611028
1:53 AM 43.0 F / 6.1 C 28.9 F / -1.7 C 58% 29.86 in / 1011.0 hPa 10.0 miles / 16.1 kilometers SW 11.5 mph / 18.5 km/h / 5.1 m/s - N/A   Clear
METAR KPAH 210753Z AUTO 22010KT 10SM CLR 06/M02 A2985 RMK AO2 SLP110 T00611017
2:53 AM 42.1 F / 5.6 C 30.9 F / -0.6 C 65% 29.88 in / 1011.9 hPa 10.0 miles / 16.1 kilometers SW 9.2 mph / 14.8 km/h / 4.1 m/s - N/A   Clear
METAR KPAH 210853Z AUTO 22008KT 10SM CLR 06/M01 A2988 RMK AO2 SLP119 T00561006 53024
3:53 AM 42.1 F / 5.6 C 33.1 F / 0.6 C 70% 29.89 in / 1012.2 hPa 10.0 miles / 16.1 kilometers SW 13.8 mph / 22.2 km/h / 6.2 m/s - N/A   Clear
METAR KPAH 210953Z AUTO 23012KT 10SM CLR 06/01 A2989 RMK AO2 SLP122 T00560006
4:53 AM 39.9 F / 4.4 C 34.0 F / 1.1 C 79% 29.92 in / 1013.2 hPa 10.0 miles / 16.1 kilometers SW 6.9 mph / 11.1 km/h / 3.1 m/s - N/A   Mostly Cloudy
METAR KPAH 211053Z AUTO 22006KT 10SM BKN017 04/01 A2992 RMK AO2 SLP132 T00440011
6:53 AM 43.0 F / 6.1 C 37.0 F / 2.8 C 80% 29.96 in / 1014.5 hPa 10.0 miles / 16.1 kilometers Variable 3.5 mph / 5.6 km/h / 1.5 m/s - N/A   Overcast
METAR KPAH 211253Z VRB03KT 10SM BKN013 OVC022 06/03 A2995 RMK AO2 SLP145 T00610028
7:53 AM 44.1 F / 6.7 C 37.9 F / 3.3 C 79% 29.98 in / 1015.0 hPa 10.0 miles / 16.1 kilometers Calm Calm - N/A   Overcast
METAR KPAH 211353Z 00000KT 10SM OVC013 07/03 A2997 RMK AO2 SLP150 T00670033
8:53 AM 45.0 F / 7.2 C 39.0 F / 3.9 C 80% 30.00 in / 1015.7 hPa 10.0 miles / 16.1 kilometers SSW 5.8 mph / 9.3 km/h / 2.6 m/s - N/A   Overcast
METAR KPAH 211453Z 21005KT 10SM OVC013 07/04 A2999 RMK AO2 SLP157 T00720039 53020
9:53 AM 46.9 F / 8.3 C 39.9 F / 4.4 C 77% 30.01 in / 1016.2 hPa 10.0 miles / 16.1 kilometers SSW 6.9 mph / 11.1 km/h / 3.1 m/s - N/A   Overcast
METAR KPAH 211553Z 21006KT 10SM OVC013 08/04 A3001 RMK AO2 SLP162 T00830044
10:53 AM 48.9 F / 9.4 C 41.0 F / 5.0 C 74% 30.01 in / 1016.0 hPa 10.0 miles / 16.1 kilometers SW 5.8 mph / 9.3 km/h / 2.6 m/s - N/A   Overcast
METAR KPAH 211653Z 22005KT 10SM OVC013 09/05 A3000 RMK AO2 SLP160 T00940050
11:53 AM 48.9 F / 9.4 C 43.0 F / 6.1 C 80% 29.98 in / 1015.1 hPa 10.0 miles / 16.1 kilometers SW 9.2 mph / 14.8 km/h / 4.1 m/s - N/A   Overcast
METAR KPAH 211753Z 22008KT 10SM OVC013 09/06 A2998 RMK AO2 SLP151 T00940061 10094 20056 58005
12:53 PM 50.0 F / 10.0 C 44.1 F / 6.7 C 80% 29.96 in / 1014.3 hPa 9.0 miles / 14.5 kilometers WSW 8.1 mph / 13.0 km/h / 3.6 m/s - N/A   Overcast
METAR KPAH 211853Z 25007KT 9SM OVC013 10/07 A2995 RMK AO2 SLP143 T01000067
1:53 PM 51.1 F / 10.6 C 45.0 F / 7.2 C 80% 29.95 in / 1014.0 hPa 10.0 miles / 16.1 kilometers WSW 10.4 mph / 16.7 km/h / 4.6 m/s - N/A   Overcast
METAR KPAH 211953Z 24009KT 10SM OVC013 11/07 A2994 RMK AO2 SLP140 T01060072
2:23 PM 51.8 F / 11.0 C 44.6 F / 7.0 C 76% 29.96 in / 1014.4 hPa 10.0 miles / 16.1 kilometers WSW 6.9 mph / 11.1 km/h / 3.1 m/s - N/A   Overcast
SPECI KPAH 212023Z 25006KT 10SM OVC015 11/07 A2996 RMK AO2
2:53 PM 50.0 F / 10.0 C 45.0 F / 7.2 C 83% 29.96 in / 1014.3 hPa 10.0 miles / 16.1 kilometers West 3.5 mph / 5.6 km/h / 1.5 m/s - N/A   Overcast
METAR KPAH 212053Z 27003KT 10SM OVC017 10/07 A2995 RMK AO2 SLP143 T01000072 55007
3:53 PM 48.9 F / 9.4 C 45.0 F / 7.2 C 86% 29.97 in / 1014.9 hPa 4.0 miles / 6.4 kilometers Calm Calm - N/A   Overcast
METAR KPAH 212153Z 00000KT 4SM BR OVC015 09/07 A2997 RMK AO2 SLP149 T00940072
4:28 PM 48.2 F / 9.0 C 46.4 F / 8.0 C 93% 29.99 in / 1015.5 hPa 2.0 miles / 3.2 kilometers Calm Calm - N/A   Overcast
SPECI KPAH 212228Z 00000KT 2SM BR OVC015 09/08 A2999 RMK AO2
4:40 PM 48.2 F / 9.0 C 46.4 F / 8.0 C 93% 29.99 in / 1015.5 hPa 1.8 miles / 2.8 kilometers Calm Calm - N/A   Overcast
SPECI KPAH 212240Z 00000KT 1 3/4SM BR OVC015 09/08 A2999 RMK AO2
4:44 PM 48.2 F / 9.0 C 46.4 F / 8.0 C 93% 29.99 in / 1015.5 hPa 2.0 miles / 3.2 kilometers Calm Calm - N/A   Overcast
SPECI KPAH 212244Z 00000KT 2SM BR FEW008 OVC015 09/08 A2999 RMK AO2
4:53 PM 46.9 F / 8.3 C 46.0 F / 7.8 C 97% 29.99 in / 1015.5 hPa 1.8 miles / 2.8 kilometers Calm Calm - N/A   Overcast
METAR KPAH 212253Z 00000KT 1 3/4SM BR FEW008 OVC015 08/08 A2999 RMK AO2 SLP155 T00830078
5:19 PM 46.4 F / 8.0 C 44.6 F / 7.0 C 93% 29.99 in / 1015.5 hPa 0.5 miles / 0.8 kilometers NNE 3.5 mph / 5.6 km/h / 1.5 m/s - 0.01 in / 0.0 cm Fog Fog
SPECI KPAH 212319Z 03003KT 1/2SM FG FEW003 BKN017 OVC033 08/07 A2999 RMK AO2 P0001
5:31 PM 46.4 F / 8.0 C 44.6 F / 7.0 C 93% 29.99 in / 1015.5 hPa 0.8 miles / 1.2 kilometers NE 4.6 mph / 7.4 km/h / 2.1 m/s - 0.01 in / 0.0 cm   Overcast
SPECI KPAH 212331Z 04004KT 3/4SM BR BKN003 BKN017 OVC033 08/07 A2999 RMK AO2 P0001
5:38 PM 46.4 F / 8.0 C 44.6 F / 7.0 C 93% 29.98 in / 1015.1 hPa 1.2 miles / 2.0 kilometers NE 3.5 mph / 5.6 km/h / 1.5 m/s - 0.01 in / 0.0 cm   Overcast
SPECI KPAH 212338Z 05003KT 1 1/4SM BR BKN003 OVC033 08/07 A2998 RMK AO2 P0001
5:53 PM 46.0 F / 7.8 C 45.0 F / 7.2 C 96% 29.99 in / 1015.3 hPa 1.8 miles / 2.8 kilometers NNE 4.6 mph / 7.4 km/h / 2.1 m/s - 0.01 in / 0.0 cm   Overcast
METAR KPAH 212353Z 03004KT 1 3/4SM BR OVC003 08/07 A2998 RMK AO2 CIG 001V006 SLP153 P0001 60001 T00780072 10111 20078 50009
6:09 PM 46.4 F / 8.0 C 46.4 F / 8.0 C 100% 29.99 in / 1015.5 hPa 2.0 miles / 3.2 kilometers NE 3.5 mph / 5.6 km/h / 1.5 m/s - 0.00 in / 0.0 cm   Overcast
SPECI KPAH 220009Z 05003KT 2SM BR OVC003 08/08 A2999 RMK AO2 RAB2355E06 CIG 001V005 P0000
6:32 PM 46.4 F / 8.0 C 44.6 F / 7.0 C 93% 29.99 in / 1015.5 hPa 1.8 miles / 2.8 kilometers NE 3.5 mph / 5.6 km/h / 1.5 m/s - 0.00 in / 0.0 cm   Overcast
SPECI KPAH 220032Z 04003KT 1 3/4SM BR SCT002 OVC007 08/07 A2999 RMK AO2 RAB2355E06 P0000
6:53 PM 46.0 F / 7.8 C 45.0 F / 7.2 C 96% 29.99 in / 1015.3 hPa 1.0 miles / 1.6 kilometers NE 4.6 mph / 7.4 km/h / 2.1 m/s - 0.00 in / 0.0 cm Rain Light Rain
METAR KPAH 220053Z 05004KT 1SM -RA BR SCT002 BKN007 OVC014 08/07 A2998 RMK AO2 RAB2355E06B33 SLP153 P0000 T00780072
7:53 PM 46.0 F / 7.8 C 45.0 F / 7.2 C 96% 30.01 in / 1016.0 hPa 1.2 miles / 2.0 kilometers NE 3.5 mph / 5.6 km/h / 1.5 m/s - 0.06 in / 0.2 cm Rain Light Rain
METAR KPAH 220153Z 04003KT 1 1/4SM -RA BR SCT004 OVC009 08/07 A3000 RMK AO2 SLP160 P0006 T00780072
8:26 PM 46.4 F / 8.0 C 44.6 F / 7.0 C 93% 30.00 in / 1015.8 hPa 1.8 miles / 2.8 kilometers NNE 6.9 mph / 11.1 km/h / 3.1 m/s - 0.02 in / 0.1 cm Rain Rain
SPECI KPAH 220226Z 02006KT 1 3/4SM RA BR SCT002 OVC011 08/07 A3000 RMK AO2 P0002
8:39 PM 46.4 F / 8.0 C 44.6 F / 7.0 C 93% 30.00 in / 1015.8 hPa 2.0 miles / 3.2 kilometers NNE 4.6 mph / 7.4 km/h / 2.1 m/s - N/A Rain Rain
SPECI KPAH 220239Z 02004KT 2SM RA BR SCT002 OVC016 08/07 A3000
8:53 PM 46.0 F / 7.8 C 45.0 F / 7.2 C 96% 30.00 in / 1015.7 hPa 2.0 miles / 3.2 kilometers North 6.9 mph / 11.1 km/h / 3.1 m/s - 0.13 in / 0.3 cm Rain Heavy Rain
METAR KPAH 220253Z 01006KT 2SM +RA BR FEW002 OVC018 08/07 A3000 RMK AO2 SLP157 P0013 60019 T00780072 50005
9:09 PM 46.4 F / 8.0 C 44.6 F / 7.0 C 93% 30.01 in / 1016.1 hPa 3.0 miles / 4.8 kilometers North 5.8 mph / 9.3 km/h / 2.6 m/s - 0.03 in / 0.1 cm Rain Light Rain
SPECI KPAH 220309Z 01005KT 3SM -RA BR FEW006 OVC020 08/07 A3001 RMK AO2 P0003
9:53 PM 44.1 F / 6.7 C 41.0 F / 5.0 C 89% 30.03 in / 1016.7 hPa 5.0 miles / 8.0 kilometers NNE 11.5 mph / 18.5 km/h / 5.1 m/s - 0.11 in / 0.3 cm Rain Rain
METAR KPAH 220353Z 03010KT 5SM RA BR FEW016 OVC024 07/05 A3002 RMK AO2 SLP167 P0011 T00670050
10:53 PM 41.0 F / 5.0 C 37.9 F / 3.3 C 89% 30.04 in / 1017.3 hPa 6.0 miles / 9.7 kilometers North 13.8 mph / 22.2 km/h / 6.2 m/s - 0.10 in / 0.3 cm Rain Light Rain
METAR KPAH 220453Z 01012KT 6SM -RA BR FEW013 OVC026 05/03 A3004 RMK AO2 SLP173 P0010 T00500033
11:18 PM 39.2 F / 4.0 C 37.4 F / 3.0 C 93% 30.05 in / 1017.5 hPa 3.0 miles / 4.8 kilometers North 13.8 mph / 22.2 km/h / 6.2 m/s - 0.05 in / 0.1 cm Rain Rain
SPECI KPAH 220518Z 01012KT 3SM RA BR SCT009 BKN014 OVC026 04/03 A3005 RMK AO2 P0005
11:45 PM 35.6 F / 2.0 C 33.8 F / 1.0 C 93% 30.05 in / 1017.5 hPa 3.0 miles / 4.8 kilometers NNE 18.4 mph / 29.6 km/h / 8.2 m/s 25.3 mph / 40.7 km/h / 11.3 m/s 0.11 in / 0.3 cm Rain Rain
SPECI KPAH 220545Z 03016G22KT 3SM RA BR FEW009 SCT014 OVC030 02/01 A3005 RMK AO2 P0011
11:53 PM 36.0 F / 2.2 C 33.1 F / 0.6 C 89% 30.07 in / 1018.1 hPa 4.0 miles / 6.4 kilometers NNE 15.0 mph / 24.1 km/h / 6.7 m/s - 0.12 in / 0.3 cm Rain Rain
METAR KPAH 220553Z 03013KT 4SM RA BR FEW013 OVC030 02/01 A3006 RMK AO2 SLP181 P0012 60052 T00220006 10078 20022 401110022